Markham, Minnesota
Current Conditions -  °F | °C
As of 2:51 PM on Saturday 25 Oct 2014 (Local Time) from KEVM Reporting Station
Clear Clear  
Wind Chill: 55°   Ceiling: Unl
Heat Index: 55°   Visibility: 10mi
Dew Point: 28°   Wind: 15mph
Humidity: 36%   Direction: 280°W
Pressure: 29.9"   Gusts: 30mph
Location:  47.3034°N, 92.2081°W
Report Text: KEVM 251951Z AUTO 28013G26KT 10SM CLR 13/M02 A2990 RMK AO2
Loading
Personal Weather Stations






























Interactive Weather Map
Tropical Storm Tracking
New forecast layout! Learn more

10-Day Weather Forecast

Advertisements
Track Severe Weather on mobile